sensor_id;sensor_type;location;lat;lon;timestamp;pressure;altitude;pressure_sealevel;temperature;humidity
52469;BME280;38381;53.688;10.776;2022-10-22T00:00:22;100604.44;;;13.37;100.00
52469;BME280;38381;53.688;10.776;2022-10-22T00:05:23;100607.91;;;13.39;100.00
52469;BME280;38381;53.688;10.776;2022-10-22T00:10:23;100601.78;;;13.39;100.00
52469;BME280;38381;53.688;10.776;2022-10-22T00:15:24;100606.09;;;13.44;100.00
52469;BME280;38381;53.688;10.776;2022-10-22T00:20:24;100609.56;;;13.46;100.00
52469;BME280;38381;53.688;10.776;2022-10-22T00:25:25;100604.34;;;13.48;100.00
52469;BME280;38381;53.688;10.776;2022-10-22T00:30:25;100604.38;;;13.43;100.00
52469;BME280;38381;53.688;10.776;2022-10-22T00:35:26;100600.88;;;13.46;100.00
52469;BME280;38381;53.688;10.776;2022-10-22T00:40:26;100599.06;;;13.56;100.00
52469;BME280;38381;53.688;10.776;2022-10-22T00:45:27;100611.22;;;13.60;100.00
52469;BME280;38381;53.688;10.776;2022-10-22T00:50:38;100619.88;;;13.57;100.00
52469;BME280;38381;53.688;10.776;2022-10-22T00:55:41;100617.28;;;13.60;100.00
52469;BME280;38381;53.688;10.776;2022-10-22T01:00:43;100622.53;;;13.54;100.00
52469;BME280;38381;53.688;10.776;2022-10-22T01:05:55;100618.16;;;13.58;100.00
52469;BME280;38381;53.688;10.776;2022-10-22T01:16:21;100601.66;;;13.59;100.00
52469;BME280;38381;53.688;10.776;2022-10-22T01:26:40;100609.41;;;13.65;100.00
52469;BME280;38381;53.688;10.776;2022-10-22T01:31:57;100611.09;;;13.69;100.00
52469;BME280;38381;53.688;10.776;2022-10-22T01:37:00;100618.06;;;13.70;100.00
52469;BME280;38381;53.688;10.776;2022-10-22T01:42:02;100626.75;;;13.69;100.00
52469;BME280;38381;53.688;10.776;2022-10-22T01:52:26;100632.81;;;13.71;100.00
52469;BME280;38381;53.688;10.776;2022-10-22T01:57:43;100635.41;;;13.74;100.00
52469;BME280;38381;53.688;10.776;2022-10-22T02:03:02;100638.88;;;13.76;100.00
52469;BME280;38381;53.688;10.776;2022-10-22T02:08:07;100641.47;;;13.76;100.00
52469;BME280;38381;53.688;10.776;2022-10-22T02:13:15;100652.75;;;13.78;100.00
52469;BME280;38381;53.688;10.776;2022-10-22T02:18:23;100645.00;;;13.69;100.00
52469;BME280;38381;53.688;10.776;2022-10-22T02:23:26;100637.13;;;13.77;100.00
52469;BME280;38381;53.688;10.776;2022-10-22T02:33:42;100627.53;;;13.77;100.00
52469;BME280;38381;53.688;10.776;2022-10-22T02:38:45;100624.94;;;13.80;100.00
52469;BME280;38381;53.688;10.776;2022-10-22T02:43:52;100637.91;;;13.86;100.00
52469;BME280;38381;53.688;10.776;2022-10-22T02:48:53;100641.38;;;13.85;100.00
52469;BME280;38381;53.688;10.776;2022-10-22T02:53:54;100641.44;;;13.78;100.00
52469;BME280;38381;53.688;10.776;2022-10-22T02:58:54;100633.66;;;13.75;100.00
52469;BME280;38381;53.688;10.776;2022-10-22T03:03:55;100631.00;;;13.79;100.00
52469;BME280;38381;53.688;10.776;2022-10-22T03:08:56;100629.25;;;13.81;100.00
52469;BME280;38381;53.688;10.776;2022-10-22T03:13:56;100630.94;;;13.84;100.00
52469;BME280;38381;53.688;10.776;2022-10-22T03:18:57;100631.84;;;13.84;100.00
52469;BME280;38381;53.688;10.776;2022-10-22T03:24:00;100636.16;;;13.85;100.00
52469;BME280;38381;53.688;10.776;2022-10-22T03:29:02;100634.44;;;13.83;100.00
52469;BME280;38381;53.688;10.776;2022-10-22T03:34:03;100649.19;;;13.87;100.00
52469;BME280;38381;53.688;10.776;2022-10-22T03:39:05;100645.72;;;13.86;100.00
52469;BME280;38381;53.688;10.776;2022-10-22T03:44:06;100642.22;;;13.86;100.00
52469;BME280;38381;53.688;10.776;2022-10-22T03:49:07;100655.34;;;13.78;100.00
52469;BME280;38381;53.688;10.776;2022-10-22T03:54:07;100647.53;;;13.75;100.00
52469;BME280;38381;53.688;10.776;2022-10-22T03:59:07;100649.25;;;13.81;100.00
52469;BME280;38381;53.688;10.776;2022-10-22T04:04:08;100664.03;;;13.80;99.64
52469;BME280;38381;53.688;10.776;2022-10-22T04:09:08;100659.72;;;13.72;100.00
52469;BME280;38381;53.688;10.776;2022-10-22T04:14:09;100664.97;;;13.67;100.00
52469;BME280;38381;53.688;10.776;2022-10-22T04:19:12;100655.50;;;13.60;100.00
52469;BME280;38381;53.688;10.776;2022-10-22T04:24:12;100658.09;;;13.60;100.00
52469;BME280;38381;53.688;10.776;2022-10-22T04:29:13;100657.25;;;13.58;100.00
52469;BME280;38381;53.688;10.776;2022-10-22T04:34:13;100662.47;;;13.56;99.93
52469;BME280;38381;53.688;10.776;2022-10-22T04:39:14;100662.56;;;13.42;100.00
52469;BME280;38381;53.688;10.776;2022-10-22T04:44:14;100662.59;;;13.39;100.00
52469;BME280;38381;53.688;10.776;2022-10-22T04:49:15;100673.84;;;13.43;100.00
52469;BME280;38381;53.688;10.776;2022-10-22T04:54:15;100674.69;;;13.46;100.00
52469;BME280;38381;53.688;10.776;2022-10-22T04:59:15;100683.44;;;13.39;100.00
52469;BME280;38381;53.688;10.776;2022-10-22T05:04:17;100683.47;;;13.25;100.00
52469;BME280;38381;53.688;10.776;2022-10-22T05:09:19;100687.88;;;13.16;100.00
52469;BME280;38381;53.688;10.776;2022-10-22T05:14:23;100683.53;;;13.12;100.00
52469;BME280;38381;53.688;10.776;2022-10-22T05:19:29;100691.41;;;13.07;100.00
52469;BME280;38381;53.688;10.776;2022-10-22T05:24:31;100703.56;;;13.06;100.00
52469;BME280;38381;53.688;10.776;2022-10-22T05:29:32;100703.56;;;12.97;100.00
52469;BME280;38381;53.688;10.776;2022-10-22T05:34:32;100703.59;;;12.93;100.00
52469;BME280;38381;53.688;10.776;2022-10-22T05:39:35;100716.59;;;12.96;100.00
52469;BME280;38381;53.688;10.776;2022-10-22T05:44:36;100710.53;;;12.94;100.00
52469;BME280;38381;53.688;10.776;2022-10-22T05:49:36;100706.19;;;12.89;100.00
52469;BME280;38381;53.688;10.776;2022-10-22T05:54:37;100709.66;;;12.92;100.00
52469;BME280;38381;53.688;10.776;2022-10-22T05:59:37;100710.53;;;12.98;100.00
52469;BME280;38381;53.688;10.776;2022-10-22T06:04:38;100709.66;;;12.96;100.00
52469;BME280;38381;53.688;10.776;2022-10-22T06:09:38;100725.25;;;12.99;100.00
52469;BME280;38381;53.688;10.776;2022-10-22T06:14:39;100720.09;;;12.96;100.00
52469;BME280;38381;53.688;10.776;2022-10-22T06:19:39;100727.91;;;12.96;100.00
52469;BME280;38381;53.688;10.776;2022-10-22T06:24:39;100733.94;;;13.03;100.00
52469;BME280;38381;53.688;10.776;2022-10-22T06:29:40;100727.88;;;13.02;100.00
52469;BME280;38381;53.688;10.776;2022-10-22T06:34:40;100732.25;;;12.94;100.00
52469;BME280;38381;53.688;10.776;2022-10-22T06:39:41;100733.97;;;12.91;100.00
52469;BME280;38381;53.688;10.776;2022-10-22T06:44:41;100741.78;;;12.89;100.00
52469;BME280;38381;53.688;10.776;2022-10-22T06:49:41;100749.63;;;12.86;100.00
52469;BME280;38381;53.688;10.776;2022-10-22T06:54:42;100757.41;;;12.91;100.00
52469;BME280;38381;53.688;10.776;2022-10-22T06:59:42;100764.31;;;12.99;100.00
52469;BME280;38381;53.688;10.776;2022-10-22T07:04:43;100774.75;;;12.96;100.00
52469;BME280;38381;53.688;10.776;2022-10-22T07:09:43;100779.06;;;12.97;100.00
52469;BME280;38381;53.688;10.776;2022-10-22T07:14:48;100786.88;;;12.97;100.00
52469;BME280;38381;53.688;10.776;2022-10-22T07:19:49;100786.84;;;13.02;100.00
52469;BME280;38381;53.688;10.776;2022-10-22T07:24:49;100784.31;;;12.94;100.00
52469;BME280;38381;53.688;10.776;2022-10-22T07:29:49;100786.03;;;12.89;100.00
52469;BME280;38381;53.688;10.776;2022-10-22T07:34:50;100799.91;;;13.00;100.00
52469;BME280;38381;53.688;10.776;2022-10-22T07:39:50;100794.69;;;13.00;100.00
52469;BME280;38381;53.688;10.776;2022-10-22T07:44:51;100794.66;;;13.11;100.00
52469;BME280;38381;53.688;10.776;2022-10-22T07:49:51;100807.66;;;13.19;100.00
52469;BME280;38381;53.688;10.776;2022-10-22T07:54:52;100808.50;;;13.25;100.00
52469;BME280;38381;53.688;10.776;2022-10-22T07:59:52;100807.63;;;13.30;100.00
52469;BME280;38381;53.688;10.776;2022-10-22T08:04:52;100814.53;;;13.40;100.00
52469;BME280;38381;53.688;10.776;2022-10-22T08:09:56;100839.69;;;13.48;100.00
52469;BME280;38381;53.688;10.776;2022-10-22T08:14:56;100842.31;;;13.44;100.00
52469;BME280;38381;53.688;10.776;2022-10-22T08:19:56;100845.81;;;13.38;100.00
52469;BME280;38381;53.688;10.776;2022-10-22T08:24:57;100849.25;;;13.50;100.00
52469;BME280;38381;53.688;10.776;2022-10-22T08:29:59;100847.47;;;13.53;100.00
52469;BME280;38381;53.688;10.776;2022-10-22T08:35:00;100845.75;;;13.52;100.00
52469;BME280;38381;53.688;10.776;2022-10-22T08:40:00;100851.75;;;13.69;100.00
52469;BME280;38381;53.688;10.776;2022-10-22T08:45:13;100854.41;;;13.57;100.00
52469;BME280;38381;53.688;10.776;2022-10-22T08:50:21;100856.09;;;13.67;100.00
52469;BME280;38381;53.688;10.776;2022-10-22T08:55:23;100863.06;;;13.67;100.00
52469;BME280;38381;53.688;10.776;2022-10-22T09:00:37;100866.53;;;13.71;100.00
52469;BME280;38381;53.688;10.776;2022-10-22T09:16:14;100874.28;;;13.80;100.00
52469;BME280;38381;53.688;10.776;2022-10-22T09:21:17;100876.88;;;13.83;100.00
52469;BME280;38381;53.688;10.776;2022-10-22T09:26:20;100883.75;;;13.99;100.00
52469;BME280;38381;53.688;10.776;2022-10-22T09:31:20;100882.94;;;13.91;100.00
52469;BME280;38381;53.688;10.776;2022-10-22T09:36:21;100885.34;;;14.19;100.00
52469;BME280;38381;53.688;10.776;2022-10-22T09:41:25;100884.44;;;14.27;100.00
52469;BME280;38381;53.688;10.776;2022-10-22T09:46:28;100888.69;;;14.39;100.00
52469;BME280;38381;53.688;10.776;2022-10-22T09:56:38;100889.09;;;15.01;97.57
52469;BME280;38381;53.688;10.776;2022-10-22T10:01:41;100897.66;;;15.16;96.18
52469;BME280;38381;53.688;10.776;2022-10-22T10:06:43;100895.88;;;15.18;96.27
52469;BME280;38381;53.688;10.776;2022-10-22T10:23:13;100907.97;;;15.28;96.71
52469;BME280;38381;53.688;10.776;2022-10-22T10:33:50;100897.97;;;15.62;96.49
52469;BME280;38381;53.688;10.776;2022-10-22T10:39:00;100897.75;;;15.84;95.43
52469;BME280;38381;53.688;10.776;2022-10-22T10:44:35;100888.66;;;16.09;94.63
52469;BME280;38381;53.688;10.776;2022-10-22T10:49:39;100886.56;;;16.35;94.04
52469;BME280;38381;53.688;10.776;2022-10-22T11:00:09;100896.22;;;16.85;91.67
52469;BME280;38381;53.688;10.776;2022-10-22T11:15:46;100887.75;;;17.64;87.63
52469;BME280;38381;53.688;10.776;2022-10-22T11:21:30;100884.03;;;17.76;86.26
52469;BME280;38381;53.688;10.776;2022-10-22T11:26:52;100890.47;;;18.02;81.46
52469;BME280;38381;53.688;10.776;2022-10-22T11:31:55;100887.94;;;17.99;81.58
52469;BME280;38381;53.688;10.776;2022-10-22T11:36:57;100879.94;;;18.03;80.27
52469;BME280;38381;53.688;10.776;2022-10-22T11:42:03;100872.13;;;18.00;81.98
52469;BME280;38381;53.688;10.776;2022-10-22T11:47:15;100872.88;;;18.07;82.18
52469;BME280;38381;53.688;10.776;2022-10-22T11:52:48;100868.59;;;18.03;80.25
52469;BME280;38381;53.688;10.776;2022-10-22T11:57:49;100875.22;;;18.19;80.70
52469;BME280;38381;53.688;10.776;2022-10-22T12:03:01;100864.19;;;18.41;77.81
52469;BME280;38381;53.688;10.776;2022-10-22T12:08:24;100863.69;;;18.62;77.30
52469;BME280;38381;53.688;10.776;2022-10-22T12:13:29;100861.28;;;18.89;75.25
52469;BME280;38381;53.688;10.776;2022-10-22T12:18:40;100859.50;;;19.21;73.95
52469;BME280;38381;53.688;10.776;2022-10-22T12:23:42;100851.63;;;19.21;73.77
52469;BME280;38381;53.688;10.776;2022-10-22T12:28:44;100858.97;;;19.09;73.44
52469;BME280;38381;53.688;10.776;2022-10-22T12:33:44;100856.41;;;19.06;73.26
52469;BME280;38381;53.688;10.776;2022-10-22T12:38:46;100853.38;;;19.22;72.40
52469;BME280;38381;53.688;10.776;2022-10-22T12:43:46;100849.69;;;19.27;71.86
52469;BME280;38381;53.688;10.776;2022-10-22T12:48:47;100845.84;;;19.39;70.45
52469;BME280;38381;53.688;10.776;2022-10-22T12:53:52;100849.94;;;19.49;69.02
52469;BME280;38381;53.688;10.776;2022-10-22T13:09:19;100865.00;;;19.44;69.59
52469;BME280;38381;53.688;10.776;2022-10-22T13:14:30;100870.56;;;19.65;69.47
52469;BME280;38381;53.688;10.776;2022-10-22T13:19:45;100870.50;;;19.35;70.28
52469;BME280;38381;53.688;10.776;2022-10-22T13:24:49;100886.72;;;19.20;71.47
52469;BME280;38381;53.688;10.776;2022-10-22T13:29:50;100902.06;;;19.02;71.63
52469;BME280;38381;53.688;10.776;2022-10-22T13:34:51;100905.03;;;18.90;72.69
52469;BME280;38381;53.688;10.776;2022-10-22T13:39:51;100903.38;;;18.86;73.38
52469;BME280;38381;53.688;10.776;2022-10-22T13:44:52;100895.75;;;18.75;73.92
52469;BME280;38381;53.688;10.776;2022-10-22T13:49:54;100886.00;;;18.80;73.78
52469;BME280;38381;53.688;10.776;2022-10-22T13:54:57;100879.69;;;18.87;73.37
52469;BME280;38381;53.688;10.776;2022-10-22T13:59:58;100884.16;;;18.84;74.63
52469;BME280;38381;53.688;10.776;2022-10-22T14:04:58;100882.13;;;18.95;74.11
52469;BME280;38381;53.688;10.776;2022-10-22T14:10:11;100882.28;;;18.89;74.58
52469;BME280;38381;53.688;10.776;2022-10-22T14:15:14;100886.44;;;18.98;74.13
52469;BME280;38381;53.688;10.776;2022-10-22T14:20:17;100886.81;;;18.82;73.75
52469;BME280;38381;53.688;10.776;2022-10-22T14:25:22;100892.16;;;18.78;73.63
52469;BME280;38381;53.688;10.776;2022-10-22T14:30:24;100891.09;;;18.86;73.37
52469;BME280;38381;53.688;10.776;2022-10-22T14:35:25;100885.28;;;18.72;73.56
52469;BME280;38381;53.688;10.776;2022-10-22T14:40:26;100885.28;;;18.38;73.96
52469;BME280;38381;53.688;10.776;2022-10-22T14:45:26;100885.91;;;18.47;73.86
52469;BME280;38381;53.688;10.776;2022-10-22T14:50:27;100892.91;;;18.48;71.77
52469;BME280;38381;53.688;10.776;2022-10-22T14:55:27;100901.38;;;18.60;71.30
52469;BME280;38381;53.688;10.776;2022-10-22T15:00:28;100898.06;;;18.52;72.10
52469;BME280;38381;53.688;10.776;2022-10-22T15:05:28;100905.63;;;18.28;72.77
52469;BME280;38381;53.688;10.776;2022-10-22T15:10:29;100911.69;;;18.32;73.30
52469;BME280;38381;53.688;10.776;2022-10-22T15:15:29;100908.38;;;18.23;72.90
52469;BME280;38381;53.688;10.776;2022-10-22T15:20:30;100913.84;;;18.13;73.56
52469;BME280;38381;53.688;10.776;2022-10-22T15:25:30;100906.25;;;18.00;74.44
52469;BME280;38381;53.688;10.776;2022-10-22T15:30:31;100915.19;;;17.92;74.77
52469;BME280;38381;53.688;10.776;2022-10-22T15:35:31;100915.53;;;17.73;75.74
52469;BME280;38381;53.688;10.776;2022-10-22T15:40:32;100914.59;;;17.77;76.12
52469;BME280;38381;53.688;10.776;2022-10-22T15:45:32;100920.59;;;17.84;76.15
52469;BME280;38381;53.688;10.776;2022-10-22T15:50:37;100930.69;;;17.60;76.88
52469;BME280;38381;53.688;10.776;2022-10-22T15:55:37;100935.44;;;17.41;77.89
52469;BME280;38381;53.688;10.776;2022-10-22T16:00:38;100931.91;;;17.41;78.02
52469;BME280;38381;53.688;10.776;2022-10-22T16:05:38;100925.91;;;17.36;78.29
52469;BME280;38381;53.688;10.776;2022-10-22T16:10:44;100939.13;;;17.29;78.69
52469;BME280;38381;53.688;10.776;2022-10-22T16:15:44;100942.69;;;17.27;78.80
52469;BME280;38381;53.688;10.776;2022-10-22T16:20:46;100959.53;;;17.12;79.52
52469;BME280;38381;53.688;10.776;2022-10-22T16:25:46;100965.78;;;17.05;79.91
52469;BME280;38381;53.688;10.776;2022-10-22T16:30:47;100963.28;;;16.97;80.28
52469;BME280;38381;53.688;10.776;2022-10-22T16:35:47;100971.22;;;16.94;80.42
52469;BME280;38381;53.688;10.776;2022-10-22T16:40:48;100987.22;;;16.71;81.16
52469;BME280;38381;53.688;10.776;2022-10-22T16:45:49;100994.25;;;16.69;81.16
52469;BME280;38381;53.688;10.776;2022-10-22T16:50:50;100991.72;;;16.64;81.15
52469;BME280;38381;53.688;10.776;2022-10-22T16:55:50;100988.16;;;16.67;81.04
52469;BME280;38381;53.688;10.776;2022-10-22T17:00:51;101002.19;;;16.64;80.91
52469;BME280;38381;53.688;10.776;2022-10-22T17:05:51;101010.28;;;16.47;80.71
52469;BME280;38381;53.688;10.776;2022-10-22T17:10:52;101018.81;;;16.60;79.44
52469;BME280;38381;53.688;10.776;2022-10-22T17:16:00;101017.22;;;16.50;79.34
52469;BME280;38381;53.688;10.776;2022-10-22T17:21:02;101028.06;;;16.22;80.45
52469;BME280;38381;53.688;10.776;2022-10-22T17:26:11;101035.09;;;16.17;81.03
52469;BME280;38381;53.688;10.776;2022-10-22T17:31:25;101043.66;;;16.30;80.60
52469;BME280;38381;53.688;10.776;2022-10-22T17:36:26;101049.97;;;16.15;81.19
52469;BME280;38381;53.688;10.776;2022-10-22T17:41:33;101048.16;;;16.20;81.36
52469;BME280;38381;53.688;10.776;2022-10-22T17:46:34;101055.25;;;16.12;81.91
52469;BME280;38381;53.688;10.776;2022-10-22T17:51:34;101061.31;;;16.14;82.15
52469;BME280;38381;53.688;10.776;2022-10-22T17:56:34;101065.72;;;16.09;82.78
52469;BME280;38381;53.688;10.776;2022-10-22T18:01:36;101066.63;;;16.06;83.64
52469;BME280;38381;53.688;10.776;2022-10-22T18:06:39;101061.47;;;16.02;83.68
52469;BME280;38381;53.688;10.776;2022-10-22T18:11:40;101081.63;;;15.91;84.49
52469;BME280;38381;53.688;10.776;2022-10-22T18:16:40;101080.75;;;15.90;84.86
52469;BME280;38381;53.688;10.776;2022-10-22T18:21:41;101073.84;;;15.83;85.24
52469;BME280;38381;53.688;10.776;2022-10-22T18:26:42;101077.25;;;15.91;85.23
52469;BME280;38381;53.688;10.776;2022-10-22T18:31:43;101079.06;;;15.86;85.56
52469;BME280;38381;53.688;10.776;2022-10-22T18:36:43;101083.44;;;15.82;85.94
52469;BME280;38381;53.688;10.776;2022-10-22T18:41:44;101076.53;;;15.77;86.38
52469;BME280;38381;53.688;10.776;2022-10-22T18:46:44;101083.50;;;15.76;87.33
52469;BME280;38381;53.688;10.776;2022-10-22T18:51:45;101084.50;;;15.61;87.49
52469;BME280;38381;53.688;10.776;2022-10-22T18:56:48;101084.44;;;15.67;87.78
52469;BME280;38381;53.688;10.776;2022-10-22T19:01:50;101088.88;;;15.58;88.20
52469;BME280;38381;53.688;10.776;2022-10-22T19:06:51;101095.06;;;15.51;88.46
52469;BME280;38381;53.688;10.776;2022-10-22T19:11:51;101109.00;;;15.49;88.62
52469;BME280;38381;53.688;10.776;2022-10-22T19:16:52;101108.13;;;15.49;88.14
52469;BME280;38381;53.688;10.776;2022-10-22T19:21:52;101111.59;;;15.51;88.02
52469;BME280;38381;53.688;10.776;2022-10-22T19:26:55;101110.72;;;15.52;87.97
52469;BME280;38381;53.688;10.776;2022-10-22T19:31:56;101122.09;;;15.46;88.17
52469;BME280;38381;53.688;10.776;2022-10-22T19:36:57;101133.44;;;15.45;88.32
52469;BME280;38381;53.688;10.776;2022-10-22T19:41:57;101131.72;;;15.43;88.28
52469;BME280;38381;53.688;10.776;2022-10-22T19:46:58;101137.97;;;15.22;89.23
52469;BME280;38381;53.688;10.776;2022-10-22T19:51:59;101137.13;;;15.15;89.77
52469;BME280;38381;53.688;10.776;2022-10-22T19:56:59;101155.41;;;15.17;89.52
52469;BME280;38381;53.688;10.776;2022-10-22T20:02:00;101152.78;;;15.20;89.59
52469;BME280;38381;53.688;10.776;2022-10-22T20:07:00;101151.94;;;15.15;89.22
52469;BME280;38381;53.688;10.776;2022-10-22T20:12:01;101161.59;;;15.02;89.63
52469;BME280;38381;53.688;10.776;2022-10-22T20:17:01;101167.72;;;14.95;89.83
52469;BME280;38381;53.688;10.776;2022-10-22T20:22:02;101165.16;;;14.87;90.28
52469;BME280;38381;53.688;10.776;2022-10-22T20:27:02;101173.00;;;14.84;90.37
52469;BME280;38381;53.688;10.776;2022-10-22T20:32:03;101178.25;;;14.79;90.33
52469;BME280;38381;53.688;10.776;2022-10-22T20:37:03;101180.88;;;14.73;90.18
52469;BME280;38381;53.688;10.776;2022-10-22T20:42:04;101192.25;;;14.58;91.33
52469;BME280;38381;53.688;10.776;2022-10-22T20:47:04;101196.56;;;14.58;91.19
52469;BME280;38381;53.688;10.776;2022-10-22T20:52:05;101199.19;;;14.61;91.53
52469;BME280;38381;53.688;10.776;2022-10-22T20:57:06;101204.41;;;14.52;91.76
52469;BME280;38381;53.688;10.776;2022-10-22T21:02:07;101206.19;;;14.42;91.70
52469;BME280;38381;53.688;10.776;2022-10-22T21:07:09;101209.63;;;14.53;91.11
52469;BME280;38381;53.688;10.776;2022-10-22T21:12:09;101207.03;;;14.48;90.79
52469;BME280;38381;53.688;10.776;2022-10-22T21:17:09;101220.09;;;14.35;91.51
52469;BME280;38381;53.688;10.776;2022-10-22T21:22:10;101214.88;;;14.28;91.81
52469;BME280;38381;53.688;10.776;2022-10-22T21:27:11;101216.66;;;14.14;92.66
52469;BME280;38381;53.688;10.776;2022-10-22T21:32:11;101206.22;;;14.16;92.16
52469;BME280;38381;53.688;10.776;2022-10-22T21:37:11;101214.06;;;14.09;92.30
52469;BME280;38381;53.688;10.776;2022-10-22T21:42:15;101222.75;;;14.04;92.16
52469;BME280;38381;53.688;10.776;2022-10-22T21:47:16;101221.88;;;14.03;91.85
52469;BME280;38381;53.688;10.776;2022-10-22T21:52:16;101210.59;;;13.97;91.98
52469;BME280;38381;53.688;10.776;2022-10-22T21:57:16;101215.78;;;13.94;92.09
52469;BME280;38381;53.688;10.776;2022-10-22T22:02:17;101209.72;;;13.81;92.68
52469;BME280;38381;53.688;10.776;2022-10-22T22:07:17;101217.53;;;13.75;92.56
52469;BME280;38381;53.688;10.776;2022-10-22T22:12:18;101213.19;;;13.66;93.23
52469;BME280;38381;53.688;10.776;2022-10-22T22:17:20;101223.59;;;13.69;92.92
52469;BME280;38381;53.688;10.776;2022-10-22T22:22:20;101221.84;;;13.59;93.03
52469;BME280;38381;53.688;10.776;2022-10-22T22:27:21;101228.78;;;13.51;93.46
52469;BME280;38381;53.688;10.776;2022-10-22T22:32:21;101233.09;;;13.41;94.07
52469;BME280;38381;53.688;10.776;2022-10-22T22:37:22;101233.09;;;13.36;93.99
52469;BME280;38381;53.688;10.776;2022-10-22T22:42:22;101230.50;;;13.39;93.44
52469;BME280;38381;53.688;10.776;2022-10-22T22:47:23;101235.72;;;13.33;93.77
52469;BME280;38381;53.688;10.776;2022-10-22T22:52:23;101234.84;;;13.31;93.76
52469;BME280;38381;53.688;10.776;2022-10-22T22:57:24;101231.28;;;13.24;93.76
52469;BME280;38381;53.688;10.776;2022-10-22T23:02:24;101230.41;;;13.24;93.53
52469;BME280;38381;53.688;10.776;2022-10-22T23:07:25;101233.00;;;13.08;94.48
52469;BME280;38381;53.688;10.776;2022-10-22T23:12:25;101226.88;;;13.08;93.91
52469;BME280;38381;53.688;10.776;2022-10-22T23:17:26;101226.84;;;12.97;94.44
52469;BME280;38381;53.688;10.776;2022-10-22T23:22:26;101229.47;;;12.94;94.50
52469;BME280;38381;53.688;10.776;2022-10-22T23:27:27;101224.19;;;12.83;94.54
52469;BME280;38381;53.688;10.776;2022-10-22T23:32:27;101228.50;;;12.81;94.16
52469;BME280;38381;53.688;10.776;2022-10-22T23:37:27;101223.28;;;12.77;94.13
52469;BME280;38381;53.688;10.776;2022-10-22T23:42:28;101231.06;;;12.69;94.03
52469;BME280;38381;53.688;10.776;2022-10-22T23:47:28;101231.03;;;12.63;93.54
52469;BME280;38381;53.688;10.776;2022-10-22T23:52:29;101224.94;;;12.53;93.37
52469;BME280;38381;53.688;10.776;2022-10-22T23:57:29;101223.09;;;12.40;94.08
